createdAt,value
2022-10-13T00:00:30.563Z,61.57
2022-10-13T00:01:25.252Z,61.79
2022-10-13T00:01:58.448Z,61.68
2022-10-13T00:02:31.551Z,61.67
2022-10-13T00:03:04.931Z,61.55
2022-10-13T00:03:42.600Z,61.57
2022-10-13T00:04:15.777Z,61.37
2022-10-13T00:04:48.806Z,61.35
2022-10-13T00:05:22.024Z,61.17
2022-10-13T00:05:55.200Z,61.26
2022-10-13T00:06:28.440Z,61.19
2022-10-13T00:07:01.540Z,61.11
2022-10-13T00:07:34.685Z,61.18
2022-10-13T00:08:08.050Z,61.30
2022-10-13T00:08:41.661Z,61.39
2022-10-13T00:09:14.845Z,61.44
2022-10-13T00:09:48.404Z,61.43
2022-10-13T00:10:21.864Z,61.54
2022-10-13T00:10:54.933Z,61.56
2022-10-13T00:11:30.573Z,61.47
2022-10-13T00:12:03.788Z,61.30
2022-10-13T00:12:38.971Z,61.48
2022-10-13T00:13:12.948Z,61.54
2022-10-13T00:13:47.917Z,61.73
2022-10-13T00:14:21.024Z,61.83
2022-10-13T00:14:54.117Z,62.04
2022-10-13T00:15:27.389Z,62.07
2022-10-13T00:16:03.336Z,62.16
2022-10-13T00:16:36.864Z,62.31
2022-10-13T00:17:10.010Z,62.29
2022-10-13T00:17:43.267Z,62.19
2022-10-13T00:18:16.912Z,62.06
2022-10-13T00:18:50.727Z,61.94
2022-10-13T00:19:23.884Z,61.78
2022-10-13T00:19:57.217Z,61.69
2022-10-13T00:20:30.785Z,61.55
2022-10-13T00:21:11.571Z,61.59
2022-10-13T00:21:44.929Z,61.45
2022-10-13T00:22:18.316Z,61.46
2022-10-13T00:22:51.672Z,61.44
2022-10-13T00:23:25.191Z,61.43
2022-10-13T00:23:58.530Z,61.45
2022-10-13T00:24:31.591Z,61.46
2022-10-13T00:25:05.028Z,61.54
2022-10-13T00:25:43.539Z,61.53
2022-10-13T00:26:17.924Z,61.44
2022-10-13T00:26:52.591Z,61.61
2022-10-13T00:27:25.631Z,61.70
2022-10-13T00:27:58.850Z,61.71
2022-10-13T00:28:32.155Z,61.84
2022-10-13T00:29:05.271Z,61.87
2022-10-13T00:29:38.291Z,61.85
2022-10-13T00:30:11.987Z,61.91
2022-10-13T00:30:46.496Z,61.84
2022-10-13T00:31:21.034Z,61.91
2022-10-13T00:31:54.119Z,62.08
2022-10-13T00:32:27.262Z,62.00
2022-10-13T00:33:00.328Z,62.06
2022-10-13T00:33:33.431Z,62.06
2022-10-13T00:34:06.557Z,62.13
2022-10-13T00:34:40.111Z,61.93
2022-10-13T00:35:13.485Z,61.90
2022-10-13T00:35:48.620Z,61.91
2022-10-13T00:36:23.354Z,61.83
2022-10-13T00:36:56.504Z,61.87
2022-10-13T00:37:29.638Z,61.81
2022-10-13T00:38:03.053Z,61.82
2022-10-13T00:38:36.365Z,61.91
2022-10-13T00:39:09.554Z,61.90
2022-10-13T00:39:42.992Z,61.78
2022-10-13T00:40:16.483Z,61.83
2022-10-13T00:40:52.831Z,61.75
2022-10-13T00:41:26.466Z,61.97
2022-10-13T00:42:00.429Z,61.81
2022-10-13T00:42:33.586Z,61.75
2022-10-13T00:43:16.784Z,61.80
2022-10-13T00:44:03.772Z,61.81
2022-10-13T00:44:58.551Z,61.85
2022-10-13T00:45:31.733Z,61.91
2022-10-13T00:46:05.010Z,61.96
2022-10-13T00:46:38.171Z,61.77
2022-10-13T00:47:11.252Z,61.73
2022-10-13T00:47:48.563Z,61.88
2022-10-13T00:48:28.840Z,61.81
2022-10-13T00:49:12.217Z,61.81
2022-10-13T00:49:45.817Z,61.91
2022-10-13T00:50:24.368Z,61.84
2022-10-13T00:50:59.042Z,61.84
2022-10-13T00:51:36.975Z,61.76
2022-10-13T00:52:10.169Z,61.65
2022-10-13T00:52:44.454Z,61.68
2022-10-13T00:53:20.900Z,61.63
2022-10-13T00:53:54.902Z,61.63
2022-10-13T00:54:28.110Z,61.62
2022-10-13T00:55:03.293Z,61.65
2022-10-13T00:55:40.198Z,61.46
2022-10-13T00:56:15.716Z,61.47
2022-10-13T00:56:51.123Z,61.32
2022-10-13T00:57:24.348Z,61.29
2022-10-13T00:58:04.873Z,61.35
2022-10-13T00:58:40.029Z,61.34
2022-10-13T00:59:23.239Z,61.18
2022-10-13T00:59:57.361Z,61.12
2022-10-13T01:00:31.077Z,61.05
2022-10-13T01:01:05.575Z,61.07
2022-10-13T01:01:38.730Z,61.08
2022-10-13T01:02:11.877Z,61.09
2022-10-13T01:02:45.025Z,60.99
2022-10-13T01:03:19.664Z,60.93
2022-10-13T01:03:53.364Z,60.89
2022-10-13T01:04:32.130Z,60.86
2022-10-13T01:05:07.603Z,61.13
2022-10-13T01:05:42.129Z,61.14
2022-10-13T01:06:21.190Z,61.07
2022-10-13T01:06:57.352Z,61.20
2022-10-13T01:07:31.121Z,61.26
2022-10-13T01:08:05.009Z,61.17
2022-10-13T01:08:38.251Z,61.18
2022-10-13T01:09:11.391Z,61.09
2022-10-13T01:09:45.475Z,61.11
2022-10-13T01:10:41.604Z,61.07
2022-10-13T01:11:20.455Z,61.17
2022-10-13T01:12:13.205Z,61.06
2022-10-13T01:13:27.912Z,61.18
2022-10-13T01:14:22.257Z,61.20
2022-10-13T01:15:31.664Z,61.50
2022-10-13T01:16:21.426Z,61.64
2022-10-13T01:17:14.506Z,61.44
2022-10-13T01:18:14.352Z,61.38
2022-10-13T01:19:21.214Z,61.70
2022-10-13T01:20:33.226Z,61.74
2022-10-13T01:21:28.941Z,61.66
2022-10-13T01:22:28.647Z,61.38
2022-10-13T01:23:33.043Z,61.49
2022-10-13T01:24:11.990Z,61.65
2022-10-13T01:25:17.367Z,61.55
2022-10-13T01:25:53.018Z,61.68
2022-10-13T01:26:26.188Z,61.62
2022-10-13T01:27:20.961Z,61.73
2022-10-13T01:28:32.865Z,61.71
2022-10-13T01:29:11.974Z,61.65
2022-10-13T01:29:57.734Z,61.42
2022-10-13T01:30:38.303Z,61.34
2022-10-13T01:31:29.946Z,61.20
2022-10-13T01:32:25.518Z,61.43
2022-10-13T01:33:21.655Z,61.59
2022-10-13T01:34:02.475Z,61.62
2022-10-13T01:34:44.739Z,61.63
2022-10-13T01:35:17.742Z,61.80
2022-10-13T01:36:13.697Z,61.94
2022-10-13T01:37:05.579Z,61.95
2022-10-13T01:37:51.521Z,62.09
2022-10-13T01:38:34.251Z,62.17
2022-10-13T01:39:52.260Z,62.09
2022-10-13T01:40:37.368Z,62.15
2022-10-13T01:41:34.232Z,61.93
2022-10-13T01:42:16.135Z,61.87
2022-10-13T01:43:14.828Z,61.84
2022-10-13T01:44:05.923Z,61.85
2022-10-13T01:44:44.372Z,61.76
2022-10-13T01:45:22.577Z,61.78
2022-10-13T01:46:02.772Z,61.88
2022-10-13T01:46:39.890Z,61.75
2022-10-13T01:47:16.292Z,61.72
2022-10-13T01:47:51.953Z,61.66
2022-10-13T01:48:28.131Z,61.36
2022-10-13T01:49:05.481Z,61.31
2022-10-13T01:49:40.014Z,61.07
2022-10-13T01:50:17.205Z,60.80
2022-10-13T01:50:52.636Z,60.98
2022-10-13T01:51:29.126Z,61.25
2022-10-13T01:52:07.296Z,60.95
2022-10-13T01:52:41.976Z,60.81
2022-10-13T01:53:18.202Z,60.84
2022-10-13T01:53:51.846Z,60.82
2022-10-13T01:54:25.162Z,60.93
2022-10-13T01:54:58.304Z,60.92
2022-10-13T01:55:32.414Z,61.01
2022-10-13T01:56:05.989Z,61.01
2022-10-13T01:56:39.052Z,60.93
2022-10-13T01:57:34.953Z,60.93
2022-10-13T01:58:11.292Z,61.32
2022-10-13T01:58:45.119Z,61.22
2022-10-13T01:59:18.342Z,60.97
2022-10-13T01:59:51.538Z,60.92
2022-10-13T02:00:26.113Z,60.78
2022-10-13T02:01:08.198Z,60.67
2022-10-13T02:02:06.022Z,60.71
2022-10-13T02:02:48.984Z,60.79
2022-10-13T02:03:34.597Z,60.83
2022-10-13T02:04:37.598Z,60.85
2022-10-13T02:05:36.751Z,61.02
2022-10-13T02:06:22.391Z,61.14
2022-10-13T02:07:18.444Z,61.07
2022-10-13T02:08:15.554Z,60.85
2022-10-13T02:09:34.147Z,61.01
2022-10-13T02:10:20.440Z,61.14
2022-10-13T02:11:09.415Z,61.39
2022-10-13T02:11:50.194Z,61.43
2022-10-13T02:12:42.158Z,61.38
2022-10-13T02:13:18.031Z,61.53
2022-10-13T02:14:00.572Z,61.35
2022-10-13T02:14:38.306Z,61.39
2022-10-13T02:15:17.018Z,61.44
2022-10-13T02:15:54.053Z,61.41
2022-10-13T02:16:36.472Z,61.33
2022-10-13T02:17:10.394Z,61.29
2022-10-13T02:17:43.527Z,61.30
2022-10-13T02:18:21.359Z,61.32
2022-10-13T02:18:57.744Z,61.29
2022-10-13T02:19:35.072Z,61.25
2022-10-13T02:20:09.719Z,61.09
2022-10-13T02:20:44.598Z,61.03
2022-10-13T02:21:18.424Z,61.00
2022-10-13T02:21:53.636Z,61.03
2022-10-13T02:22:32.692Z,61.00
2022-10-13T02:23:12.094Z,60.99
2022-10-13T02:23:46.239Z,60.99
2022-10-13T02:24:19.933Z,60.98
2022-10-13T02:24:53.526Z,61.01
2022-10-13T02:25:28.319Z,61.18
2022-10-13T02:26:01.972Z,61.02
2022-10-13T02:26:37.746Z,61.00
2022-10-13T02:27:11.118Z,61.14
2022-10-13T02:27:44.275Z,61.20
2022-10-13T02:28:18.555Z,61.13
2022-10-13T02:28:52.374Z,61.18
2022-10-13T02:29:25.974Z,61.36
2022-10-13T02:29:59.388Z,61.33
2022-10-13T02:30:33.679Z,61.37
2022-10-13T02:31:09.092Z,61.37
2022-10-13T02:31:44.028Z,61.38
2022-10-13T02:32:17.591Z,61.34
2022-10-13T02:32:51.184Z,61.32
2022-10-13T02:33:24.309Z,61.39
2022-10-13T02:33:57.360Z,61.41
2022-10-13T02:34:31.094Z,61.45
2022-10-13T02:35:04.469Z,61.54
2022-10-13T02:35:38.081Z,61.50
2022-10-13T02:36:12.763Z,61.61
2022-10-13T02:36:46.040Z,61.68
2022-10-13T02:37:19.636Z,61.59
2022-10-13T02:37:52.865Z,61.62
2022-10-13T02:38:26.046Z,61.64
2022-10-13T02:38:59.274Z,61.62
2022-10-13T02:39:32.374Z,61.47
2022-10-13T02:40:06.440Z,61.49
2022-10-13T02:40:40.592Z,61.58
2022-10-13T02:41:14.621Z,61.47
2022-10-13T02:41:47.741Z,61.41
2022-10-13T02:42:21.087Z,61.52
2022-10-13T02:42:54.622Z,61.61
2022-10-13T02:43:28.036Z,61.64
2022-10-13T02:44:01.137Z,61.73
2022-10-13T02:44:34.530Z,61.80
2022-10-13T02:45:08.849Z,61.79
2022-10-13T02:45:41.807Z,61.82
2022-10-13T02:46:14.924Z,61.92
2022-10-13T02:46:48.058Z,61.92
2022-10-13T02:47:21.180Z,61.92
2022-10-13T02:47:54.346Z,61.95
2022-10-13T02:48:27.480Z,62.05
2022-10-13T02:49:00.786Z,62.04
2022-10-13T02:49:34.083Z,62.07
2022-10-13T02:50:08.081Z,62.11
2022-10-13T02:50:41.322Z,62.04
2022-10-13T02:51:14.463Z,61.86
2022-10-13T02:51:47.671Z,61.76
2022-10-13T02:52:21.290Z,61.65
2022-10-13T02:52:54.622Z,61.74
2022-10-13T02:53:27.723Z,61.68
2022-10-13T02:54:00.775Z,61.58
2022-10-13T02:54:33.976Z,61.65
2022-10-13T02:55:08.292Z,61.77
2022-10-13T02:55:41.805Z,61.67
2022-10-13T02:56:14.998Z,61.65
2022-10-13T02:56:48.062Z,61.60
2022-10-13T02:57:21.141Z,61.60
2022-10-13T02:57:54.190Z,61.65
2022-10-13T02:58:27.521Z,61.63
2022-10-13T02:59:00.918Z,61.46
2022-10-13T02:59:34.122Z,61.41
2022-10-13T03:00:08.235Z,61.41
2022-10-13T03:00:41.542Z,61.34
2022-10-13T03:01:15.903Z,61.23
2022-10-13T03:01:49.145Z,61.07
2022-10-13T03:02:22.698Z,60.80
2022-10-13T03:02:56.564Z,60.75
2022-10-13T03:03:29.848Z,60.69
2022-10-13T03:04:02.928Z,60.79
2022-10-13T03:04:35.936Z,60.83
2022-10-13T03:05:09.954Z,60.92
2022-10-13T03:05:44.004Z,60.93
2022-10-13T03:06:17.325Z,60.91
2022-10-13T03:06:50.482Z,60.90
2022-10-13T03:07:23.776Z,60.82
2022-10-13T03:07:57.344Z,60.81
2022-10-13T03:08:32.772Z,60.76
2022-10-13T03:09:06.235Z,60.76
2022-10-13T03:09:39.453Z,60.77
2022-10-13T03:10:12.979Z,60.83
2022-10-13T03:10:46.107Z,60.70
2022-10-13T03:11:19.283Z,60.65
2022-10-13T03:11:52.476Z,60.61
2022-10-13T03:12:25.521Z,60.53
2022-10-13T03:12:59.164Z,60.63
2022-10-13T03:13:32.379Z,60.60
2022-10-13T03:14:05.445Z,60.61
2022-10-13T03:14:38.529Z,60.58
2022-10-13T03:15:11.587Z,60.63
2022-10-13T03:15:44.787Z,60.72
2022-10-13T03:16:18.045Z,60.78
2022-10-13T03:16:51.188Z,60.79
2022-10-13T03:17:24.323Z,60.77
2022-10-13T03:17:57.541Z,60.81
2022-10-13T03:18:30.870Z,60.84
2022-10-13T03:19:04.184Z,60.76
2022-10-13T03:19:37.222Z,60.80
2022-10-13T03:20:10.826Z,60.83
2022-10-13T03:20:43.946Z,60.88
2022-10-13T03:21:17.167Z,60.91
2022-10-13T03:21:50.448Z,60.77
2022-10-13T03:22:23.728Z,60.83
2022-10-13T03:22:56.861Z,60.72
2022-10-13T03:23:31.008Z,60.68
2022-10-13T03:24:05.928Z,60.81
2022-10-13T03:24:39.084Z,60.94
2022-10-13T03:25:12.359Z,60.99
2022-10-13T03:25:45.659Z,61.05
2022-10-13T03:26:19.226Z,60.99
2022-10-13T03:26:52.479Z,60.99
2022-10-13T03:27:25.926Z,60.93
2022-10-13T03:27:59.493Z,60.86
2022-10-13T03:28:32.711Z,60.82
2022-10-13T03:29:05.940Z,60.85
2022-10-13T03:29:39.285Z,60.77
2022-10-13T03:30:12.687Z,60.80
2022-10-13T03:30:46.440Z,60.79
2022-10-13T03:31:19.677Z,60.82
2022-10-13T03:31:52.866Z,60.81
2022-10-13T03:32:26.168Z,60.69
2022-10-13T03:32:59.290Z,60.76
2022-10-13T03:33:32.419Z,60.63
2022-10-13T03:34:05.439Z,60.52
2022-10-13T03:34:38.609Z,60.55
2022-10-13T03:35:11.807Z,60.62
2022-10-13T03:35:44.968Z,60.59
2022-10-13T03:36:18.694Z,60.62
2022-10-13T03:36:51.869Z,60.69
2022-10-13T03:37:24.971Z,60.71
2022-10-13T03:37:58.998Z,60.71
2022-10-13T03:38:34.404Z,60.63
2022-10-13T03:39:07.624Z,60.54
2022-10-13T03:39:40.717Z,60.60
2022-10-13T03:40:13.866Z,60.54
2022-10-13T03:40:47.209Z,60.40
2022-10-13T03:41:20.885Z,60.34
2022-10-13T03:41:53.883Z,60.33
2022-10-13T03:42:27.295Z,60.29
2022-10-13T03:43:00.266Z,60.21
2022-10-13T03:43:33.830Z,60.20
2022-10-13T03:44:07.803Z,60.13
2022-10-13T03:44:40.961Z,60.10
2022-10-13T03:45:14.222Z,60.14
2022-10-13T03:46:01.527Z,60.09
2022-10-13T03:46:34.897Z,60.15
2022-10-13T03:47:07.986Z,60.05
2022-10-13T03:47:41.102Z,60.11
2022-10-13T03:48:14.152Z,60.16
2022-10-13T03:48:48.056Z,60.20
2022-10-13T03:49:21.204Z,60.27
2022-10-13T03:49:55.468Z,60.28
2022-10-13T03:50:28.639Z,60.37
2022-10-13T03:51:13.616Z,60.45
2022-10-13T03:51:46.693Z,60.57
2022-10-13T03:52:20.045Z,60.29
2022-10-13T03:52:53.534Z,60.27
2022-10-13T03:53:26.766Z,60.26
2022-10-13T03:53:59.989Z,60.20
2022-10-13T03:54:33.288Z,60.16
2022-10-13T03:55:06.783Z,59.94
2022-10-13T03:55:39.886Z,59.90
2022-10-13T03:56:16.489Z,59.87
2022-10-13T03:56:49.484Z,60.10
2022-10-13T03:57:22.742Z,60.03
2022-10-13T03:57:56.472Z,60.02
2022-10-13T03:58:30.276Z,59.96
2022-10-13T03:59:05.310Z,59.87
2022-10-13T03:59:40.899Z,59.89
2022-10-13T04:00:15.239Z,59.96
2022-10-13T04:00:48.694Z,59.96
2022-10-13T04:01:24.083Z,60.02
2022-10-13T04:01:57.700Z,59.97
2022-10-13T04:02:30.901Z,59.92
2022-10-13T04:03:04.271Z,59.89
2022-10-13T04:03:37.483Z,59.92
2022-10-13T04:04:13.924Z,59.98
2022-10-13T04:04:47.207Z,60.01
2022-10-13T04:05:20.440Z,59.92
2022-10-13T04:05:53.676Z,59.99
2022-10-13T04:06:27.125Z,59.95
2022-10-13T04:07:00.401Z,59.98
2022-10-13T04:07:33.394Z,60.07
2022-10-13T04:08:06.932Z,60.07
2022-10-13T04:08:40.029Z,60.26
2022-10-13T04:09:13.288Z,60.24
2022-10-13T04:09:46.508Z,60.08
2022-10-13T04:10:19.552Z,60.01
2022-10-13T04:10:59.540Z,60.20
2022-10-13T04:11:32.641Z,60.03
2022-10-13T04:12:05.870Z,60.31
2022-10-13T04:12:39.623Z,60.26
2022-10-13T04:13:12.783Z,60.16
2022-10-13T04:13:46.565Z,60.00
2022-10-13T04:14:20.746Z,59.82
2022-10-13T04:14:53.853Z,59.78
2022-10-13T04:15:27.620Z,59.70
2022-10-13T04:16:27.889Z,59.77
2022-10-13T04:17:01.228Z,59.87
2022-10-13T04:17:34.469Z,59.92
2022-10-13T04:18:08.658Z,59.90
2022-10-13T04:18:44.646Z,60.01
2022-10-13T04:19:18.418Z,59.99
2022-10-13T04:19:51.738Z,59.96
2022-10-13T04:20:25.059Z,59.93
2022-10-13T04:20:58.491Z,59.99
2022-10-13T04:21:34.135Z,60.38
2022-10-13T04:22:07.313Z,60.32
2022-10-13T04:22:40.301Z,60.45
2022-10-13T04:23:13.509Z,60.47
2022-10-13T04:23:46.675Z,60.51
2022-10-13T04:24:19.805Z,60.78
2022-10-13T04:24:52.973Z,60.76
2022-10-13T04:25:26.130Z,60.78
2022-10-13T04:25:59.398Z,60.70
2022-10-13T04:26:35.250Z,60.62
2022-10-13T04:27:08.437Z,60.69
2022-10-13T04:27:41.718Z,60.67
2022-10-13T04:28:14.975Z,60.64
2022-10-13T04:28:50.250Z,60.70
2022-10-13T04:29:24.359Z,60.94
2022-10-13T04:29:57.404Z,61.02
2022-10-13T04:30:30.748Z,60.99
2022-10-13T04:31:04.075Z,61.05
2022-10-13T04:31:38.248Z,61.07
2022-10-13T04:32:11.519Z,61.07
2022-10-13T04:32:44.716Z,61.10
2022-10-13T04:33:17.935Z,61.13
2022-10-13T04:33:51.741Z,61.16
2022-10-13T04:34:24.958Z,61.12
2022-10-13T04:34:58.134Z,61.01
2022-10-13T04:35:32.205Z,60.99
2022-10-13T04:36:07.193Z,61.02
2022-10-13T04:36:40.428Z,61.10
2022-10-13T04:37:13.491Z,61.12
2022-10-13T04:37:46.667Z,61.14
2022-10-13T04:38:19.798Z,61.33
2022-10-13T04:38:54.628Z,61.29
2022-10-13T04:39:27.796Z,61.31
2022-10-13T04:40:01.020Z,61.25
2022-10-13T04:40:35.205Z,61.28
2022-10-13T04:41:09.444Z,61.25
2022-10-13T04:41:42.549Z,61.18
2022-10-13T04:42:15.934Z,61.31
2022-10-13T04:42:49.153Z,61.42
2022-10-13T04:43:22.348Z,61.57
2022-10-13T04:43:55.567Z,61.72
2022-10-13T04:44:29.561Z,61.67
2022-10-13T04:45:04.190Z,61.35
2022-10-13T04:45:37.492Z,61.16
2022-10-13T04:46:16.731Z,61.06
2022-10-13T04:46:49.990Z,61.08
2022-10-13T04:47:23.319Z,60.75
2022-10-13T04:47:56.619Z,60.72
2022-10-13T04:48:29.952Z,60.50
2022-10-13T04:49:03.294Z,60.12
2022-10-13T04:49:36.808Z,59.55
2022-10-13T04:50:10.933Z,58.79
2022-10-13T04:50:44.140Z,57.53
2022-10-13T04:51:20.257Z,56.73
2022-10-13T04:51:53.572Z,56.47
2022-10-13T04:52:26.836Z,56.79
2022-10-13T04:53:00.078Z,57.23
2022-10-13T04:53:33.546Z,57.62
2022-10-13T04:54:06.835Z,58.22
2022-10-13T04:54:39.989Z,58.96
2022-10-13T04:55:13.430Z,59.53
2022-10-13T04:55:46.697Z,60.43
2022-10-13T04:56:19.744Z,61.06
2022-10-13T04:56:53.171Z,61.71
2022-10-13T04:57:26.264Z,62.27
2022-10-13T04:57:59.371Z,62.87
2022-10-13T04:58:33.196Z,63.44
2022-10-13T04:59:06.470Z,63.66
2022-10-13T04:59:39.922Z,63.46
2022-10-13T05:00:13.576Z,63.41
2022-10-13T05:00:47.631Z,62.94
2022-10-13T05:01:23.508Z,62.23
2022-10-13T05:01:56.732Z,62.01
2022-10-13T05:02:30.048Z,61.05
2022-10-13T05:03:03.314Z,60.63
2022-10-13T05:03:36.555Z,59.87
2022-10-13T05:04:11.020Z,58.88
2022-10-13T05:04:44.336Z,57.98
2022-10-13T05:05:17.743Z,57.22
2022-10-13T05:05:51.728Z,57.14
2022-10-13T05:06:31.063Z,57.33
2022-10-13T05:07:17.615Z,57.72
2022-10-13T05:07:51.896Z,58.10
2022-10-13T05:08:25.973Z,58.95
2022-10-13T05:08:59.814Z,59.55
2022-10-13T05:09:33.036Z,60.08
2022-10-13T05:10:06.634Z,60.86
2022-10-13T05:10:39.907Z,61.34
2022-10-13T05:11:13.231Z,61.81
2022-10-13T05:11:46.616Z,62.31
2022-10-13T05:12:20.061Z,62.91
2022-10-13T05:12:54.020Z,63.54
2022-10-13T05:13:28.987Z,63.93
2022-10-13T05:14:02.546Z,63.97
2022-10-13T05:14:35.888Z,63.44
2022-10-13T05:15:09.520Z,62.82
2022-10-13T05:15:42.651Z,62.19
2022-10-13T05:16:18.250Z,61.61
2022-10-13T05:16:51.431Z,61.00
2022-10-13T05:17:24.499Z,60.19
2022-10-13T05:17:59.272Z,59.50
2022-10-13T05:18:32.545Z,59.10
2022-10-13T05:19:05.727Z,58.49
2022-10-13T05:19:38.999Z,57.93
2022-10-13T05:20:12.705Z,58.02
2022-10-13T05:20:47.142Z,58.26
2022-10-13T05:21:30.171Z,58.79
2022-10-13T05:22:03.753Z,59.25
2022-10-13T05:22:37.123Z,60.02
2022-10-13T05:23:10.751Z,60.70
2022-10-13T05:23:45.950Z,61.33
2022-10-13T05:24:21.247Z,61.94
2022-10-13T05:24:54.506Z,62.50
2022-10-13T05:25:31.550Z,63.05
2022-10-13T05:26:10.487Z,63.71
2022-10-13T05:26:43.987Z,63.79
2022-10-13T05:27:17.234Z,63.46
2022-10-13T05:27:50.651Z,62.95
2022-10-13T05:28:23.974Z,62.27
2022-10-13T05:29:01.548Z,61.34
2022-10-13T05:29:34.931Z,60.85
2022-10-13T05:30:09.126Z,59.73
2022-10-13T05:30:42.327Z,58.87
2022-10-13T05:31:20.243Z,57.72
2022-10-13T05:31:53.529Z,57.09
2022-10-13T05:32:26.711Z,56.87
2022-10-13T05:32:59.913Z,57.14
2022-10-13T05:33:33.255Z,57.57
2022-10-13T05:34:06.461Z,57.85
2022-10-13T05:34:39.661Z,58.34
2022-10-13T05:35:12.896Z,59.04
2022-10-13T05:35:46.194Z,59.51
2022-10-13T05:36:31.701Z,60.11
2022-10-13T05:37:05.354Z,60.54
2022-10-13T05:37:38.502Z,61.22
2022-10-13T05:38:11.865Z,61.82
2022-10-13T05:38:45.633Z,62.36
2022-10-13T05:39:18.946Z,62.98
2022-10-13T05:39:52.148Z,63.64
2022-10-13T05:40:25.295Z,64.03
2022-10-13T05:41:03.394Z,63.54
2022-10-13T05:41:36.858Z,63.09
2022-10-13T05:42:10.181Z,61.92
2022-10-13T05:42:43.370Z,61.01
2022-10-13T05:43:16.620Z,60.28
2022-10-13T05:43:51.887Z,59.36
2022-10-13T05:44:25.187Z,58.17
2022-10-13T05:44:58.449Z,57.23
2022-10-13T05:45:33.620Z,56.98
2022-10-13T05:46:07.141Z,57.09
2022-10-13T05:46:40.387Z,57.52
2022-10-13T05:47:13.621Z,58.02
2022-10-13T05:47:46.709Z,58.64
2022-10-13T05:48:19.984Z,59.30
2022-10-13T05:48:53.419Z,59.75
2022-10-13T05:49:26.723Z,60.33
2022-10-13T05:50:00.016Z,60.78
2022-10-13T05:50:34.852Z,61.28
2022-10-13T05:51:23.019Z,61.75
2022-10-13T05:52:00.211Z,61.86
2022-10-13T05:52:33.821Z,62.82
2022-10-13T05:53:07.086Z,63.51
2022-10-13T05:53:49.096Z,63.72
2022-10-13T05:54:25.607Z,63.56
2022-10-13T05:55:03.338Z,62.67
2022-10-13T05:55:36.618Z,62.18
2022-10-13T05:56:15.319Z,61.38
2022-10-13T05:56:53.420Z,61.18
2022-10-13T05:57:32.003Z,60.73
2022-10-13T05:58:05.357Z,60.12
2022-10-13T05:58:45.456Z,59.53
2022-10-13T05:59:26.035Z,59.27
2022-10-13T06:00:09.974Z,58.39
2022-10-13T06:00:44.057Z,57.97
2022-10-13T06:01:21.921Z,58.32
2022-10-13T06:01:55.601Z,58.76
2022-10-13T06:02:35.337Z,59.32
2022-10-13T06:03:14.084Z,59.89
2022-10-13T06:03:49.934Z,60.50
2022-10-13T06:04:30.787Z,61.13
2022-10-13T06:05:05.140Z,60.97
2022-10-13T06:05:38.369Z,60.99
2022-10-13T06:06:11.639Z,62.23
2022-10-13T06:06:45.278Z,62.85
2022-10-13T06:07:18.419Z,63.44
2022-10-13T06:07:52.065Z,63.53
2022-10-13T06:08:25.487Z,63.70
2022-10-13T06:09:00.546Z,63.45
2022-10-13T06:09:38.120Z,62.95
2022-10-13T06:10:12.497Z,62.39
2022-10-13T06:10:46.579Z,61.54
2022-10-13T06:11:19.839Z,60.69
2022-10-13T06:11:53.008Z,60.07
2022-10-13T06:12:26.424Z,59.58
2022-10-13T06:12:59.761Z,59.17
2022-10-13T06:13:34.174Z,58.50
2022-10-13T06:14:07.523Z,58.41
2022-10-13T06:14:40.688Z,58.49
2022-10-13T06:15:13.765Z,58.82
2022-10-13T06:15:47.100Z,59.38
2022-10-13T06:16:20.301Z,59.99
2022-10-13T06:16:53.351Z,60.68
2022-10-13T06:17:26.530Z,61.17
2022-10-13T06:17:59.884Z,61.71
2022-10-13T06:18:33.583Z,62.21
2022-10-13T06:19:06.806Z,62.84
2022-10-13T06:19:40.031Z,63.54
2022-10-13T06:20:13.423Z,63.98
2022-10-13T06:20:46.807Z,63.89
2022-10-13T06:21:20.158Z,63.60
2022-10-13T06:21:53.668Z,63.22
2022-10-13T06:22:26.807Z,62.69
2022-10-13T06:22:59.917Z,62.24
2022-10-13T06:23:33.163Z,61.95
2022-10-13T06:24:06.619Z,61.61
2022-10-13T06:24:39.930Z,61.33
2022-10-13T06:25:13.112Z,61.00
2022-10-13T06:25:50.269Z,60.83
2022-10-13T06:26:23.423Z,60.60
2022-10-13T06:26:56.739Z,60.21
2022-10-13T06:27:30.910Z,60.08
2022-10-13T06:28:04.341Z,60.01
2022-10-13T06:28:37.575Z,59.97
2022-10-13T06:29:11.102Z,59.72
2022-10-13T06:29:44.994Z,59.61
2022-10-13T06:30:18.734Z,59.61
2022-10-13T06:30:57.197Z,59.59
2022-10-13T06:31:30.299Z,59.65
2022-10-13T06:32:03.587Z,59.44
2022-10-13T06:32:36.977Z,59.17
2022-10-13T06:33:10.431Z,59.01
2022-10-13T06:33:43.543Z,59.25
2022-10-13T06:34:16.813Z,59.62
2022-10-13T06:34:50.486Z,60.09
2022-10-13T06:35:24.077Z,60.70
2022-10-13T06:36:01.377Z,61.28
2022-10-13T06:36:34.530Z,61.77
2022-10-13T06:37:07.678Z,62.50
2022-10-13T06:37:40.957Z,63.13
2022-10-13T06:38:14.452Z,63.86
2022-10-13T06:38:47.871Z,64.21
2022-10-13T06:39:21.348Z,64.22
2022-10-13T06:39:54.709Z,64.01
2022-10-13T06:40:28.051Z,63.68
2022-10-13T06:41:02.748Z,63.24
2022-10-13T06:41:35.945Z,62.85
2022-10-13T06:42:09.567Z,62.48
2022-10-13T06:42:42.753Z,62.18
2022-10-13T06:43:16.057Z,61.85
2022-10-13T06:43:49.947Z,61.51
2022-10-13T06:44:23.333Z,61.43
2022-10-13T06:44:56.456Z,61.16
2022-10-13T06:45:29.850Z,60.99
2022-10-13T06:46:03.206Z,60.80
2022-10-13T06:46:36.421Z,60.66
2022-10-13T06:47:09.741Z,60.55
2022-10-13T06:47:43.051Z,60.45
2022-10-13T06:48:16.176Z,60.47
2022-10-13T06:48:51.487Z,60.35
2022-10-13T06:49:25.076Z,60.35
2022-10-13T06:49:58.412Z,60.27
2022-10-13T06:50:32.549Z,60.34
2022-10-13T06:51:09.440Z,60.37
2022-10-13T06:51:42.604Z,60.43
2022-10-13T06:52:15.838Z,60.33
2022-10-13T06:52:49.103Z,60.04
2022-10-13T06:53:22.350Z,59.54
2022-10-13T06:53:58.480Z,58.98
2022-10-13T06:54:31.707Z,58.40
2022-10-13T06:55:06.215Z,58.16
2022-10-13T06:55:40.129Z,58.38
2022-10-13T06:56:13.304Z,58.90
2022-10-13T06:56:46.674Z,59.24
2022-10-13T06:57:19.843Z,59.79
2022-10-13T06:57:53.053Z,60.15
2022-10-13T06:58:27.099Z,60.75
2022-10-13T06:59:00.438Z,61.17
2022-10-13T06:59:33.974Z,61.83
2022-10-13T07:00:08.267Z,62.45
2022-10-13T07:00:42.731Z,63.17
2022-10-13T07:01:15.879Z,63.92
2022-10-13T07:01:49.551Z,64.35
2022-10-13T07:02:22.969Z,64.50
2022-10-13T07:02:56.390Z,64.28
2022-10-13T07:03:29.621Z,64.10
2022-10-13T07:04:03.052Z,63.74
2022-10-13T07:04:36.179Z,63.31
2022-10-13T07:05:09.511Z,63.03
2022-10-13T07:05:42.757Z,62.84
2022-10-13T07:06:16.292Z,62.74
2022-10-13T07:06:51.088Z,62.71
2022-10-13T07:07:24.353Z,62.38
2022-10-13T07:07:58.358Z,62.09
2022-10-13T07:08:32.884Z,61.70
2022-10-13T07:09:07.456Z,61.45
2022-10-13T07:09:41.104Z,61.09
2022-10-13T07:10:14.291Z,61.02
2022-10-13T07:10:47.871Z,60.83
2022-10-13T07:11:21.147Z,60.91
2022-10-13T07:11:54.832Z,60.91
2022-10-13T07:12:27.991Z,60.72
2022-10-13T07:13:01.286Z,60.43
2022-10-13T07:13:36.494Z,60.51
2022-10-13T07:14:10.821Z,60.50
2022-10-13T07:14:44.053Z,60.12
2022-10-13T07:15:17.487Z,60.04
2022-10-13T07:15:50.788Z,60.05
2022-10-13T07:16:24.190Z,59.99
2022-10-13T07:16:57.446Z,59.94
2022-10-13T07:17:30.532Z,60.13
2022-10-13T07:18:03.918Z,60.32
2022-10-13T07:18:37.512Z,60.22
2022-10-13T07:19:10.668Z,60.31
2022-10-13T07:19:43.660Z,60.29
2022-10-13T07:20:16.812Z,60.23
2022-10-13T07:20:50.208Z,60.14
2022-10-13T07:21:23.203Z,60.21
2022-10-13T07:21:57.032Z,60.26
2022-10-13T07:22:31.148Z,60.34
2022-10-13T07:23:04.722Z,60.53
2022-10-13T07:23:37.936Z,60.55
2022-10-13T07:24:12.296Z,60.38
2022-10-13T07:24:45.619Z,60.25
2022-10-13T07:25:18.932Z,60.23
2022-10-13T07:25:52.182Z,60.10
2022-10-13T07:26:25.241Z,60.09
2022-10-13T07:26:58.376Z,60.33
2022-10-13T07:27:31.567Z,60.10
2022-10-13T07:28:04.776Z,60.56
2022-10-13T07:28:39.153Z,60.50
2022-10-13T07:29:12.328Z,60.18
2022-10-13T07:29:45.347Z,59.78
2022-10-13T07:30:18.887Z,59.82
2022-10-13T07:30:52.978Z,59.23
2022-10-13T07:31:27.016Z,58.75
2022-10-13T07:32:00.061Z,58.73
2022-10-13T07:32:33.501Z,59.14
2022-10-13T07:33:07.701Z,59.66
2022-10-13T07:33:43.235Z,60.27
2022-10-13T07:34:16.488Z,60.68
2022-10-13T07:34:53.487Z,61.49
2022-10-13T07:35:30.473Z,62.38
2022-10-13T07:36:05.095Z,63.05
2022-10-13T07:36:41.003Z,63.99
2022-10-13T07:37:14.366Z,64.49
2022-10-13T07:37:47.563Z,63.94
2022-10-13T07:38:20.531Z,63.85